Time;durP1;ratioP1;P1;durP2;ratioP2;P2;SDS_P1;SDS_P2;PMS_P1;PMS_P2;Temp;Humidity;BMP_temperature;BMP_pressure;BME280_temperature;BME280_humidity;BME280_pressure;Samples;Min_cycle;Max_cycle;Signal;HPM_P1;HPM_P2
2021/12/19 00:01:03;;;;;;;0.30;0.30;;;6.20;99.90;;;;;;4871185;29;20218;-85
2021/12/19 00:03:46;;;;;;;0.50;0.47;;;6.20;99.90;;;;;;4872303;29;20306;-85
2021/12/19 00:08:56;;;;;;;0.20;0.20;;;6.30;99.90;;;;;;4872653;29;20183;-85
2021/12/19 00:11:26;;;;;;;0.33;0.33;;;6.30;99.90;;;;;;4871117;29;20596;-85
2021/12/19 00:13:52;;;;;;;0.20;0.20;;;6.30;99.90;;;;;;4871761;29;20196;-85
2021/12/19 00:16:18;;;;;;;0.73;0.33;;;6.30;99.90;;;;;;4872318;29;20192;-85
2021/12/19 00:18:47;;;;;;;0.50;0.30;;;6.20;99.90;;;;;;4871380;29;20230;-85
2021/12/19 00:21:17;;;;;;;0.60;0.60;;;6.20;99.90;;;;;;4871442;29;20207;-86
2021/12/19 00:23:44;;;;;;;4.90;0.30;;;6.20;99.90;;;;;;4871068;29;20681;-85
2021/12/19 00:26:10;;;;;;;0.53;0.53;;;6.20;99.90;;;;;;4871405;29;20204;-85
2021/12/19 00:28:35;;;;;;;0.70;0.43;;;6.20;99.90;;;;;;4870839;29;20563;-85
2021/12/19 00:31:02;;;;;;;0.10;0.10;;;6.20;99.90;;;;;;4871259;29;20211;-86
2021/12/19 00:33:27;;;;;;;0.10;0.10;;;6.20;99.90;;;;;;4871071;29;20230;-85
2021/12/19 00:35:53;;;;;;;0.63;0.57;;;6.20;99.90;;;;;;4870169;29;20743;-86
2021/12/19 00:38:19;;;;;;;2.10;0.80;;;6.30;99.90;;;;;;4870233;29;20203;-85
2021/12/19 00:40:44;;;;;;;0.40;0.40;;;6.30;99.90;;;;;;4870635;29;20720;-85
2021/12/19 00:43:22;;;;;;;1.03;0.63;;;6.30;99.90;;;;;;4871451;29;20219;-85
2021/12/19 00:45:49;;;;;;;0.43;0.43;;;6.30;99.90;;;;;;4870329;29;20645;-85
2021/12/19 00:48:16;;;;;;;0.30;0.30;;;6.30;99.90;;;;;;4871140;29;20314;-85
2021/12/19 00:50:42;;;;;;;0.40;0.40;;;6.40;99.90;;;;;;4871442;29;20210;-85
2021/12/19 00:53:09;;;;;;;0.43;0.43;;;6.40;99.90;;;;;;4871239;29;20554;-86
2021/12/19 00:55:36;;;;;;;0.30;0.30;;;6.50;99.90;;;;;;4871150;29;20245;-85
2021/12/19 00:58:02;;;;;;;0.10;0.10;;;6.50;99.90;;;;;;4870112;29;20195;-85
2021/12/19 01:00:31;;;;;;;0.40;0.40;;;6.50;99.90;;;;;;4870698;29;20232;-85
2021/12/19 01:02:59;;;;;;;0.50;0.50;;;6.50;99.90;;;;;;4870742;29;20306;-85
2021/12/19 01:05:30;;;;;;;0.40;0.33;;;6.60;99.90;;;;;;4872486;29;20184;-85
2021/12/19 01:07:56;;;;;;;0.73;0.73;;;6.60;99.90;;;;;;4870314;29;20248;-85
2021/12/19 01:10:23;;;;;;;0.20;0.20;;;6.70;99.90;;;;;;4872815;29;20235;-84
2021/12/19 01:12:48;;;;;;;0.10;0.10;;;6.70;99.90;;;;;;4871771;29;20286;-85
2021/12/19 01:15:16;;;;;;;1.73;0.60;;;6.70;99.90;;;;;;4871372;29;20768;-85
2021/12/19 01:17:43;;;;;;;0.43;0.20;;;6.80;99.90;;;;;;4868475;29;20207;-85
2021/12/19 01:20:17;;;;;;;0.37;0.37;;;6.90;99.90;;;;;;4869026;29;20222;-85
2021/12/19 01:22:43;;;;;;;0.33;0.20;;;6.90;99.90;;;;;;4868623;29;20217;-85
2021/12/19 01:25:09;;;;;;;0.20;0.20;;;6.90;99.90;;;;;;4869864;29;20197;-85
2021/12/19 01:27:35;;;;;;;0.10;0.10;;;6.90;99.90;;;;;;4868881;29;20330;-85
2021/12/19 01:30:01;;;;;;;0.73;0.33;;;6.80;99.90;;;;;;4869957;29;20694;-84
2021/12/19 01:32:26;;;;;;;0.17;0.17;;;6.80;99.90;;;;;;4870771;29;20204;-84
2021/12/19 01:34:52;;;;;;;0.10;0.10;;;6.70;99.90;;;;;;4870420;29;20280;-85
2021/12/19 01:37:17;;;;;;;0.10;0.10;;;6.80;99.90;;;;;;4871405;29;20195;-85
2021/12/19 01:39:43;;;;;;;0.37;0.37;;;6.80;99.90;;;;;;4870719;29;20216;-85
2021/12/19 01:42:10;;;;;;;0.60;0.60;;;6.80;99.90;;;;;;4870902;29;20270;-85
2021/12/19 01:44:36;;;;;;;0.30;0.30;;;6.90;99.90;;;;;;4869946;29;20641;-85
2021/12/19 01:47:02;;;;;;;0.83;0.37;;;7.00;99.90;;;;;;4870449;29;20180;-86
2021/12/19 01:49:29;;;;;;;1.00;0.63;;;6.90;99.90;;;;;;4870055;29;20556;-84
2021/12/19 01:51:54;;;;;;;0.17;0.17;;;6.60;99.90;;;;;;4870963;29;21045;-85
2021/12/19 01:54:20;;;;;;;0.40;0.37;;;6.60;99.90;;;;;;4870679;29;20192;-84
2021/12/19 01:56:45;;;;;;;0.10;0.10;;;6.70;99.90;;;;;;4870201;29;20544;-85
2021/12/19 01:59:11;;;;;;;0.10;0.10;;;6.70;99.90;;;;;;4874253;29;20278;-85
2021/12/19 02:01:44;;;;;;;0.40;0.40;;;6.60;99.90;;;;;;4874374;29;20219;-84
2021/12/19 02:04:12;;;;;;;0.40;0.40;;;6.70;99.90;;;;;;4875747;29;20215;-85
2021/12/19 02:06:37;;;;;;;0.20;0.20;;;6.70;99.90;;;;;;4873597;29;20203;-84
2021/12/19 02:09:07;;;;;;;0.30;0.30;;;6.70;99.90;;;;;;4873879;29;20579;-86
2021/12/19 02:11:35;;;;;;;0.20;0.20;;;6.70;99.90;;;;;;4874837;29;20188;-85
2021/12/19 02:14:02;;;;;;;0.33;0.33;;;6.70;99.90;;;;;;4873319;29;20201;-85
2021/12/19 02:16:28;;;;;;;0.40;0.27;;;6.70;99.90;;;;;;4871833;29;20203;-85
2021/12/19 02:18:54;;;;;;;1.50;0.70;;;6.80;99.90;;;;;;4872173;29;20223;-85
2021/12/19 02:21:20;;;;;;;0.47;0.40;;;6.70;99.90;;;;;;4876684;29;20745;-84
2021/12/19 02:23:45;;;;;;;0.37;0.37;;;6.60;99.90;;;;;;4875122;29;20302;-85
2021/12/19 02:26:13;;;;;;;0.43;0.37;;;6.60;99.90;;;;;;4875042;29;20274;-85
2021/12/19 02:28:39;;;;;;;0.70;0.70;;;6.60;99.90;;;;;;4874570;29;20196;-85
2021/12/19 02:31:05;;;;;;;0.67;0.53;;;6.60;99.90;;;;;;4874566;29;20222;-84
2021/12/19 02:33:34;;;;;;;0.30;0.30;;;6.60;99.90;;;;;;4875204;29;20200;-85
2021/12/19 02:36:43;;;;;;;0.40;0.40;;;6.50;99.90;;;;;;4875431;29;20185;-85
2021/12/19 02:49:48;;;;;;;0.43;0.43;;;6.50;99.90;;;;;;4874508;29;20229;-85
2021/12/19 02:52:16;;;;;;;1.30;0.30;;;6.40;99.90;;;;;;4873319;29;20211;-86
2021/12/19 02:54:43;;;;;;;0.63;0.47;;;6.50;99.90;;;;;;4873759;29;20204;-85
2021/12/19 02:57:09;;;;;;;1.17;0.50;;;6.40;99.90;;;;;;4874907;29;20195;-85
2021/12/19 02:59:34;;;;;;;0.30;0.30;;;6.40;99.90;;;;;;4873793;29;20229;-84
2021/12/19 03:02:00;;;;;;;0.30;0.30;;;6.40;99.90;;;;;;4873043;29;20223;-85
2021/12/19 03:04:26;;;;;;;0.50;0.50;;;6.50;99.90;;;;;;4872824;29;20658;-84
2021/12/19 03:06:51;;;;;;;0.83;0.83;;;6.40;99.90;;;;;;4873000;29;20198;-85
2021/12/19 03:09:39;;;;;;;0.37;0.37;;;6.40;99.90;;;;;;4871312;29;20214;-85
2021/12/19 03:12:22;;;;;;;0.47;0.47;;;6.40;99.90;;;;;;4874522;29;20608;-85
2021/12/19 03:20:17;;;;;;;0.80;0.40;;;6.00;99.90;;;;;;4874282;29;20262;-85
2021/12/19 03:22:43;;;;;;;0.13;0.13;;;6.20;99.90;;;;;;4873469;29;20239;-85
2021/12/19 03:25:09;;;;;;;0.10;0.10;;;6.30;99.90;;;;;;4872839;29;20219;-85
2021/12/19 03:27:35;;;;;;;0.63;0.63;;;6.30;99.90;;;;;;4874063;29;20205;-85
2021/12/19 03:30:01;;;;;;;0.30;0.30;;;6.30;99.90;;;;;;4872842;29;20344;-85
2021/12/19 03:32:27;;;;;;;2.73;0.43;;;6.40;99.90;;;;;;4872865;29;20578;-85
2021/12/19 03:34:54;;;;;;;0.87;0.40;;;6.30;99.90;;;;;;4874174;29;20195;-85
2021/12/19 03:37:19;;;;;;;0.33;0.33;;;6.20;99.90;;;;;;4888184;29;20319;-85
2021/12/19 03:39:56;;;;;;;0.43;0.43;;;6.10;99.90;;;;;;4871976;29;20323;-85
2021/12/19 03:42:25;;;;;;;0.40;0.40;;;6.10;99.90;;;;;;4873983;29;20651;-84
2021/12/19 03:44:52;;;;;;;2.70;0.50;;;6.00;99.90;;;;;;4872190;29;20192;-84
2021/12/19 03:47:17;;;;;;;0.40;0.40;;;6.10;99.90;;;;;;4873978;29;20534;-84
2021/12/19 03:49:43;;;;;;;0.10;0.10;;;6.30;99.90;;;;;;4871757;29;20227;-85
2021/12/19 03:52:08;;;;;;;0.40;0.40;;;6.30;99.90;;;;;;4872540;29;20551;-85
2021/12/19 03:54:34;;;;;;;0.10;0.10;;;6.40;99.90;;;;;;4872199;29;20192;-84
2021/12/19 03:56:59;;;;;;;0.30;0.30;;;6.50;99.90;;;;;;4872030;29;20237;-85
2021/12/19 03:59:27;;;;;;;0.70;0.70;;;6.60;99.90;;;;;;4871520;29;20656;-85
2021/12/19 04:01:53;;;;;;;0.30;0.30;;;6.60;99.90;;;;;;4871600;29;20196;-85
2021/12/19 04:04:19;;;;;;;0.10;0.10;;;6.60;99.90;;;;;;4873018;29;20250;-86
2021/12/19 04:06:45;;;;;;;0.27;0.27;;;6.50;99.90;;;;;;4872356;29;20227;-85
2021/12/19 04:09:11;;;;;;;1.53;0.60;;;6.40;99.90;;;;;;4873219;29;20282;-85
2021/12/19 04:11:36;;;;;;;0.53;0.53;;;6.30;99.90;;;;;;4873466;29;20196;-85
2021/12/19 04:14:03;;;;;;;1.37;0.27;;;6.30;99.90;;;;;;4871634;29;20609;-85
2021/12/19 04:16:29;;;;;;;0.30;0.30;;;6.40;99.90;;;;;;4871594;29;20196;-85
2021/12/19 04:18:54;;;;;;;0.33;0.33;;;6.50;99.90;;;;;;4872504;29;20215;-84
2021/12/19 04:21:20;;;;;;;0.13;0.13;;;6.50;99.90;;;;;;4870847;29;20227;-84
2021/12/19 04:23:45;;;;;;;0.30;0.30;;;6.40;99.90;;;;;;4871700;29;20216;-85
2021/12/19 04:26:11;;;;;;;0.60;0.60;;;6.40;99.90;;;;;;4870870;29;20603;-84
2021/12/19 04:28:36;;;;;;;1.43;1.20;;;6.50;99.90;;;;;;4872402;29;20670;-85
2021/12/19 04:31:03;;;;;;;0.17;0.17;;;6.60;99.90;;;;;;4872848;29;20202;-84
2021/12/19 04:33:34;;;;;;;0.30;0.17;;;6.60;99.90;;;;;;4872072;29;20599;-85
2021/12/19 04:36:03;;;;;;;0.43;0.33;;;6.70;99.90;;;;;;4864829;29;20212;-85
2021/12/19 04:52:36;;;;;;;1.47;0.33;;;6.90;99.90;;;;;;4872940;29;20207;-84
2021/12/19 04:57:48;;;;;;;0.30;0.30;;;6.90;99.90;;;;;;4872482;29;20586;-85
2021/12/19 05:00:18;;;;;;;0.30;0.30;;;7.00;99.90;;;;;;4871026;29;20207;-85
2021/12/19 05:02:52;;;;;;;0.10;0.10;;;7.00;99.90;;;;;;4870868;29;20204;-85
2021/12/19 05:15:56;;;;;;;0.97;0.30;;;7.10;99.90;;;;;;4872269;29;20713;-85
2021/12/19 05:18:26;;;;;;;0.10;0.10;;;7.10;99.90;;;;;;4871907;29;20280;-85
2021/12/19 05:21:00;;;;;;;1.03;0.57;;;7.10;99.90;;;;;;4871052;29;20210;-85
2021/12/19 05:26:12;;;;;;;0.87;0.40;;;7.00;99.90;;;;;;4851647;29;20205;-85
2021/12/19 05:28:37;;;;;;;0.23;0.20;;;7.10;99.90;;;;;;4869772;29;20193;-85
2021/12/19 05:31:03;;;;;;;0.37;0.37;;;7.20;99.90;;;;;;4870399;29;20702;-85
2021/12/19 05:33:29;;;;;;;0.13;0.13;;;7.20;99.90;;;;;;4872512;29;20612;-84
2021/12/19 05:46:24;;;;;;;0.10;0.10;;;7.20;99.90;;;;;;4871702;29;20247;-85
2021/12/19 05:48:50;;;;;;;1.40;0.77;;;7.20;99.90;;;;;;4870585;29;20564;-85
2021/12/19 05:51:15;;;;;;;4.03;0.30;;;7.20;99.90;;;;;;4869991;29;20211;-85
2021/12/19 05:53:41;;;;;;;1.63;0.20;;;7.20;99.90;;;;;;4869921;29;20240;-85
2021/12/19 05:56:07;;;;;;;0.63;0.63;;;7.20;99.90;;;;;;4870615;29;20199;-85
2021/12/19 05:58:32;;;;;;;0.80;0.60;;;7.10;99.90;;;;;;4870208;29;20191;-85
2021/12/19 06:00:58;;;;;;;0.10;0.10;;;7.20;99.90;;;;;;4870048;29;20222;-85
2021/12/19 06:03:24;;;;;;;1.60;0.97;;;7.10;99.90;;;;;;4872035;29;20295;-85
2021/12/19 06:05:49;;;;;;;0.40;0.40;;;7.00;99.90;;;;;;4870010;29;20187;-85
2021/12/19 06:08:15;;;;;;;0.47;0.47;;;7.10;99.90;;;;;;4869706;29;20192;-85
2021/12/19 06:10:40;;;;;;;0.47;0.47;;;7.20;99.90;;;;;;4869300;29;20226;-86
2021/12/19 06:13:06;;;;;;;0.17;0.17;;;7.10;99.90;;;;;;4869991;29;20635;-85
2021/12/19 06:15:31;;;;;;;0.10;0.10;;;7.10;99.90;;;;;;4870303;29;20285;-85
2021/12/19 06:17:57;;;;;;;0.50;0.27;;;7.20;99.90;;;;;;4869181;29;20200;-85
2021/12/19 06:20:25;;;;;;;0.63;0.63;;;7.20;99.90;;;;;;4870268;29;20219;-85
2021/12/19 06:22:51;;;;;;;1.13;0.60;;;7.00;99.90;;;;;;4869566;29;20656;-84
2021/12/19 06:25:17;;;;;;;0.67;0.50;;;7.00;99.90;;;;;;4870136;29;20193;-85
2021/12/19 06:27:43;;;;;;;0.63;0.50;;;6.90;99.90;;;;;;4870127;29;20199;-84
2021/12/19 06:30:10;;;;;;;1.23;0.70;;;7.00;99.90;;;;;;4869915;29;20274;-85
2021/12/19 06:32:36;;;;;;;0.33;0.33;;;7.10;99.90;;;;;;4869409;29;20244;-85
2021/12/19 06:35:07;;;;;;;3.60;1.53;;;7.20;99.90;;;;;;4870231;29;20197;-85
2021/12/19 06:37:35;;;;;;;1.47;1.23;;;7.10;99.90;;;;;;4870284;29;20638;-85
2021/12/19 06:40:02;;;;;;;0.30;0.30;;;6.90;99.90;;;;;;4869969;29;20222;-84
2021/12/19 06:42:28;;;;;;;1.20;0.93;;;6.90;99.90;;;;;;4870720;29;20214;-85
2021/12/19 06:44:54;;;;;;;0.87;0.87;;;7.00;99.90;;;;;;4871746;29;20562;-85
2021/12/19 06:47:19;;;;;;;0.30;0.30;;;6.80;99.90;;;;;;4872970;29;20266;-85
2021/12/19 06:49:45;;;;;;;2.40;1.00;;;6.90;99.90;;;;;;4871016;29;20796;-84
2021/12/19 06:52:10;;;;;;;0.70;0.57;;;6.90;99.90;;;;;;4873443;29;20420;-84
2021/12/19 06:54:36;;;;;;;0.57;0.57;;;7.00;99.90;;;;;;4872861;29;20193;-85
2021/12/19 06:57:02;;;;;;;1.40;0.70;;;7.00;99.90;;;;;;4872810;29;20190;-85
2021/12/19 06:59:27;;;;;;;0.50;0.50;;;6.90;99.90;;;;;;4863604;29;20211;-84
2021/12/19 07:01:53;;;;;;;0.57;0.57;;;7.00;99.90;;;;;;4872719;29;20300;-84
2021/12/19 07:04:18;;;;;;;0.63;0.47;;;6.90;99.90;;;;;;4872896;29;20221;-85
2021/12/19 07:06:44;;;;;;;0.80;0.80;;;6.90;99.90;;;;;;4875389;29;20660;-84
2021/12/19 07:09:09;;;;;;;1.00;0.90;;;7.00;99.90;;;;;;4876607;29;20241;-83
2021/12/19 07:11:35;;;;;;;2.03;1.40;;;7.00;99.90;;;;;;4875235;29;20181;-84
2021/12/19 07:14:00;;;;;;;0.30;0.30;;;6.90;99.90;;;;;;4874718;29;20188;-83
2021/12/19 07:16:26;;;;;;;0.30;0.30;;;7.00;99.90;;;;;;4875914;29;20192;-83
2021/12/19 07:18:51;;;;;;;2.13;0.50;;;7.00;99.90;;;;;;4873435;29;20252;-83
2021/12/19 07:21:17;;;;;;;1.00;0.63;;;7.10;99.90;;;;;;4874189;29;20220;-84
2021/12/19 07:23:42;;;;;;;1.20;1.13;;;7.10;99.90;;;;;;4873832;29;20213;-83
2021/12/19 07:26:08;;;;;;;1.33;0.87;;;7.10;99.90;;;;;;4875576;29;20195;-82
2021/12/19 07:28:34;;;;;;;0.53;0.53;;;7.10;99.90;;;;;;4877327;29;20194;-83
2021/12/19 07:30:59;;;;;;;0.87;0.33;;;7.00;99.90;;;;;;4873542;29;20219;-83
2021/12/19 07:33:25;;;;;;;0.40;0.40;;;7.00;99.90;;;;;;4876661;29;20196;-83
2021/12/19 07:35:52;;;;;;;0.40;0.40;;;7.10;99.90;;;;;;4876434;29;20678;-83
2021/12/19 07:38:32;;;;;;;3.20;0.70;;;7.10;99.90;;;;;;4874951;29;20666;-83
2021/12/19 07:40:59;;;;;;;0.13;0.13;;;7.10;99.90;;;;;;4875960;29;20206;-83
2021/12/19 07:43:25;;;;;;;0.20;0.20;;;7.20;99.90;;;;;;4875540;29;20218;-83
2021/12/19 07:45:51;;;;;;;0.37;0.37;;;7.20;99.90;;;;;;4877432;29;20683;-83
2021/12/19 07:48:17;;;;;;;1.73;0.80;;;7.30;99.90;;;;;;4874084;29;20187;-83
2021/12/19 07:50:42;;;;;;;0.87;0.83;;;7.40;99.90;;;;;;4875171;29;20320;-83
2021/12/19 07:53:08;;;;;;;3.93;1.03;;;7.30;99.90;;;;;;4876970;29;20216;-83
2021/12/19 07:55:34;;;;;;;0.50;0.50;;;7.30;99.90;;;;;;4876626;29;20188;-83
2021/12/19 07:58:00;;;;;;;2.13;1.23;;;7.40;99.90;;;;;;4875940;29;20594;-83
2021/12/19 08:00:26;;;;;;;1.90;0.80;;;7.40;99.90;;;;;;4876304;29;20230;-83
2021/12/19 08:02:52;;;;;;;0.37;0.33;;;7.50;99.90;;;;;;4874481;29;20235;-82
2021/12/19 08:05:21;;;;;;;0.43;0.43;;;7.50;99.90;;;;;;4875650;29;20198;-82
2021/12/19 08:07:48;;;;;;;0.30;0.30;;;7.60;99.90;;;;;;4875139;29;20666;-83
2021/12/19 08:12:44;;;;;;;0.23;0.20;;;7.50;99.90;;;;;;4876890;29;20719;-83
2021/12/19 08:15:11;;;;;;;1.77;0.73;;;7.50;99.90;;;;;;4876412;29;20196;-82
2021/12/19 08:17:38;;;;;;;1.07;0.50;;;7.50;99.90;;;;;;4875773;29;20220;-83
2021/12/19 08:20:06;;;;;;;2.93;0.47;;;7.60;99.90;;;;;;4876183;29;20211;-83
2021/12/19 08:22:32;;;;;;;0.93;0.80;;;7.40;99.90;;;;;;4875832;29;20215;-83
2021/12/19 08:24:58;;;;;;;0.23;0.20;;;7.50;99.90;;;;;;4871295;29;20190;-83
2021/12/19 08:27:25;;;;;;;2.53;0.67;;;7.60;99.90;;;;;;4871473;29;20275;-83
2021/12/19 08:29:53;;;;;;;2.37;1.60;;;7.50;99.90;;;;;;4868664;29;20216;-85
2021/12/19 08:32:19;;;;;;;1.30;1.20;;;7.50;99.90;;;;;;4869505;29;20196;-85
2021/12/19 08:34:45;;;;;;;0.90;0.90;;;7.60;99.90;;;;;;4870791;29;20197;-85
2021/12/19 08:37:11;;;;;;;1.47;0.80;;;7.50;99.90;;;;;;4871068;29;20191;-85
2021/12/19 08:39:38;;;;;;;1.00;0.77;;;7.50;99.90;;;;;;4872378;29;20226;-85
2021/12/19 08:42:06;;;;;;;1.67;1.17;;;7.60;99.90;;;;;;4870702;29;20230;-85
2021/12/19 08:44:32;;;;;;;0.37;0.37;;;7.70;99.90;;;;;;4872579;29;20188;-86
2021/12/19 08:46:58;;;;;;;0.87;0.83;;;7.70;99.90;;;;;;4870976;29;20220;-85
2021/12/19 08:49:24;;;;;;;2.10;1.03;;;7.80;99.90;;;;;;4886840;29;20645;-85
2021/12/19 08:51:49;;;;;;;1.17;0.77;;;7.70;99.90;;;;;;4875077;29;20363;-85
2021/12/19 08:54:15;;;;;;;3.97;1.67;;;7.70;99.90;;;;;;4872156;29;20197;-84
2021/12/19 08:56:41;;;;;;;3.00;1.27;;;7.60;99.90;;;;;;4870512;29;20226;-85
2021/12/19 08:59:07;;;;;;;1.70;0.83;;;7.70;99.90;;;;;;4871288;29;20195;-85
2021/12/19 09:01:32;;;;;;;1.10;1.10;;;7.70;99.90;;;;;;4871701;29;20693;-85
2021/12/19 09:03:59;;;;;;;0.53;0.53;;;7.70;99.90;;;;;;4873255;29;20200;-85
2021/12/19 09:06:25;;;;;;;0.67;0.50;;;7.80;99.90;;;;;;4872634;29;20186;-86
2021/12/19 09:08:50;;;;;;;0.83;0.83;;;7.90;99.90;;;;;;4871483;29;20213;-85
2021/12/19 09:11:16;;;;;;;0.60;0.60;;;7.90;99.90;;;;;;4871644;29;20708;-84
2021/12/19 09:13:41;;;;;;;0.57;0.57;;;8.00;99.90;;;;;;4870693;29;20197;-85
2021/12/19 09:16:07;;;;;;;2.27;1.30;;;8.00;99.90;;;;;;4871045;29;20193;-84
2021/12/19 09:18:33;;;;;;;6.83;2.77;;;8.00;99.90;;;;;;4870305;29;20193;-86
2021/12/19 09:20:58;;;;;;;1.60;0.77;;;7.90;99.90;;;;;;4870670;29;20333;-85
2021/12/19 09:23:24;;;;;;;0.93;0.80;;;8.00;99.90;;;;;;4871089;29;20242;-85
2021/12/19 09:25:50;;;;;;;0.97;0.70;;;8.00;99.90;;;;;;4870454;29;20223;-84
2021/12/19 09:28:18;;;;;;;1.90;0.57;;;8.10;99.90;;;;;;4870752;29;20617;-84
2021/12/19 09:30:44;;;;;;;0.53;0.53;;;8.10;99.90;;;;;;4870812;29;20204;-85
2021/12/19 09:33:09;;;;;;;0.23;0.23;;;8.20;99.90;;;;;;4870784;29;20267;-86
2021/12/19 09:35:35;;;;;;;0.80;0.80;;;8.30;99.90;;;;;;4870708;29;20191;-86
2021/12/19 09:38:02;;;;;;;1.07;0.97;;;8.10;99.90;;;;;;4870732;29;20191;-85
2021/12/19 09:40:36;;;;;;;1.30;1.20;;;8.10;99.90;;;;;;4870278;29;20249;-83
2021/12/19 09:43:31;;;;;;;1.80;1.10;;;8.10;99.90;;;;;;4870921;29;20311;-83
2021/12/19 09:45:59;;;;;;;0.83;0.63;;;8.20;99.90;;;;;;4869454;29;20877;-82
2021/12/19 09:48:26;;;;;;;0.97;0.97;;;8.30;99.90;;;;;;4871421;29;20181;-83
2021/12/19 09:50:53;;;;;;;1.03;0.90;;;8.30;99.90;;;;;;4870086;29;20207;-83
2021/12/19 09:53:19;;;;;;;0.80;0.67;;;8.10;99.90;;;;;;4873420;29;20209;-83
2021/12/19 09:55:44;;;;;;;1.10;0.77;;;8.20;99.90;;;;;;4871648;29;20197;-83
2021/12/19 09:58:10;;;;;;;0.93;0.77;;;8.10;99.90;;;;;;4872431;29;20568;-83
2021/12/19 10:00:36;;;;;;;2.73;0.57;;;8.20;99.90;;;;;;4872130;29;20214;-83
2021/12/19 10:03:02;;;;;;;0.87;0.87;;;8.40;99.90;;;;;;4871989;29;20211;-83
2021/12/19 10:05:28;;;;;;;0.47;0.40;;;8.50;99.90;;;;;;4873672;29;20195;-83
2021/12/19 10:08:01;;;;;;;1.37;1.23;;;8.60;99.90;;;;;;4876418;29;20194;-83
2021/12/19 10:10:59;;;;;;;1.07;0.30;;;8.40;99.90;;;;;;4874694;29;21107;-83
2021/12/19 10:13:36;;;;;;;1.40;0.60;;;8.50;99.90;;;;;;4861616;29;20222;-84
2021/12/19 10:16:25;;;;;;;0.90;0.90;;;8.40;99.90;;;;;;4873163;29;20198;-84
2021/12/19 10:18:52;;;;;;;0.53;0.37;;;8.30;99.90;;;;;;4873864;29;20185;-83
2021/12/19 10:21:19;;;;;;;0.40;0.40;;;8.50;99.90;;;;;;4879504;29;20584;-83
2021/12/19 10:23:45;;;;;;;0.77;0.77;;;8.70;99.90;;;;;;4877441;29;20609;-82
2021/12/19 10:26:12;;;;;;;0.60;0.43;;;8.50;99.90;;;;;;4874569;29;20285;-83
2021/12/19 10:28:56;;;;;;;0.37;0.37;;;8.40;99.90;;;;;;4874808;29;20671;-83
2021/12/19 10:31:32;;;;;;;2.40;0.47;;;8.30;99.90;;;;;;4875787;29;20243;-83
2021/12/19 10:33:57;;;;;;;0.33;0.33;;;8.30;99.90;;;;;;4876771;29;20183;-82
2021/12/19 10:36:23;;;;;;;0.30;0.30;;;8.50;99.90;;;;;;4876712;29;20197;-83
2021/12/19 10:38:52;;;;;;;1.80;0.70;;;8.70;99.90;;;;;;4877790;29;20284;-83
2021/12/19 10:41:22;;;;;;;1.70;0.53;;;8.70;99.90;;;;;;4878747;29;20792;-82
2021/12/19 10:44:01;;;;;;;1.23;0.80;;;8.80;99.90;;;;;;4876680;29;20217;-83
2021/12/19 10:46:29;;;;;;;1.03;0.57;;;8.90;99.90;;;;;;4875963;29;20707;-83
2021/12/19 10:48:54;;;;;;;0.70;0.70;;;9.00;99.90;;;;;;4874403;29;20192;-86
2021/12/19 10:51:20;;;;;;;1.40;0.93;;;9.00;99.90;;;;;;4877469;29;20258;-83
2021/12/19 10:53:54;;;;;;;0.80;0.80;;;9.10;99.90;;;;;;4877985;29;20240;-84
2021/12/19 10:56:23;;;;;;;0.60;0.40;;;8.90;99.90;;;;;;4870739;29;20201;-83
2021/12/19 10:58:56;;;;;;;1.10;1.10;;;8.80;99.90;;;;;;4875511;29;20199;-83
2021/12/19 11:01:44;;;;;;;1.77;1.50;;;8.70;99.90;;;;;;4879070;29;20243;-83
2021/12/19 11:04:12;;;;;;;1.00;1.00;;;8.60;99.90;;;;;;4879384;29;20254;-83
2021/12/19 11:06:44;;;;;;;2.43;1.27;;;8.50;99.90;;;;;;4881042;29;20186;-83
2021/12/19 11:09:15;;;;;;;0.60;0.60;;;8.70;99.90;;;;;;4878441;29;20194;-82
2021/12/19 11:11:51;;;;;;;1.07;0.90;;;9.00;99.90;;;;;;4878817;29;20272;-83
2021/12/19 11:14:26;;;;;;;0.67;0.67;;;9.20;99.90;;;;;;4879956;29;20251;-83
2021/12/19 11:17:09;;;;;;;1.33;0.93;;;9.10;99.90;;;;;;4871193;29;20271;-83
2021/12/19 11:19:35;;;;;;;1.53;1.33;;;8.90;99.90;;;;;;4878275;29;20319;-83
2021/12/19 11:22:02;;;;;;;0.57;0.57;;;8.50;99.90;;;;;;4878530;29;20259;-82
2021/12/19 11:24:28;;;;;;;0.70;0.70;;;8.60;99.90;;;;;;4876914;29;20665;-83
2021/12/19 11:26:58;;;;;;;0.43;0.43;;;8.60;99.90;;;;;;4879020;29;20190;-82
2021/12/19 11:29:24;;;;;;;1.20;1.10;;;8.90;99.90;;;;;;4878552;29;20215;-83
2021/12/19 11:31:57;;;;;;;3.63;0.40;;;8.60;99.90;;;;;;4879125;29;20194;-83
2021/12/19 11:35:10;;;;;;;1.13;1.03;;;8.60;99.90;;;;;;4878929;29;20184;-82
2021/12/19 11:37:39;;;;;;;0.20;0.20;;;8.70;99.90;;;;;;4873427;29;20585;-82
2021/12/19 11:40:07;;;;;;;0.53;0.53;;;9.00;99.90;;;;;;4879300;29;20210;-83
2021/12/19 11:42:39;;;;;;;0.40;0.40;;;8.90;99.90;;;;;;4878859;29;20222;-83
2021/12/19 11:45:36;;;;;;;2.10;0.83;;;8.90;99.90;;;;;;4879200;29;20210;-83
2021/12/19 11:48:34;;;;;;;1.07;1.07;;;8.40;99.90;;;;;;4879690;29;20186;-83
2021/12/19 11:51:05;;;;;;;0.70;0.70;;;8.60;99.90;;;;;;4878772;29;20215;-83
2021/12/19 11:53:33;;;;;;;1.13;0.87;;;8.50;99.90;;;;;;4877734;29;20188;-83
2021/12/19 11:56:06;;;;;;;0.57;0.57;;;8.50;99.90;;;;;;4884193;29;20264;-83
2021/12/19 11:58:49;;;;;;;1.20;0.93;;;8.60;99.90;;;;;;4878004;29;20845;-82
2021/12/19 12:01:27;;;;;;;1.40;1.30;;;8.70;99.90;;;;;;4878657;29;20215;-83
2021/12/19 12:04:02;;;;;;;1.03;0.47;;;8.60;99.90;;;;;;4878209;29;20224;-82
2021/12/19 12:06:30;;;;;;;0.90;0.83;;;8.80;99.90;;;;;;4879561;29;20214;-83
2021/12/19 12:09:14;;;;;;;0.40;0.37;;;8.70;99.90;;;;;;4879022;29;20184;-83
2021/12/19 12:12:00;;;;;;;1.20;0.67;;;8.90;99.90;;;;;;4879052;29;20626;-82
2021/12/19 12:14:30;;;;;;;0.47;0.47;;;9.10;99.90;;;;;;4877428;29;20451;-83
2021/12/19 12:17:03;;;;;;;1.13;1.00;;;8.60;99.90;;;;;;4877971;29;20686;-83
2021/12/19 12:19:42;;;;;;;2.03;0.67;;;8.70;99.90;;;;;;4877930;29;20211;-83
2021/12/19 12:25:08;;;;;;;1.17;0.77;;;8.60;99.90;;;;;;4879594;29;20311;-83
2021/12/19 12:27:35;;;;;;;0.63;0.63;;;8.60;99.90;;;;;;4879054;29;20236;-83
2021/12/19 12:30:07;;;;;;;0.30;0.30;;;8.70;99.90;;;;;;4877906;29;20212;-82
2021/12/19 12:32:32;;;;;;;3.27;1.00;;;8.90;99.90;;;;;;4877509;29;20199;-82
2021/12/19 12:34:58;;;;;;;0.97;0.80;;;8.60;99.90;;;;;;4873017;29;20224;-84
2021/12/19 12:37:24;;;;;;;2.47;1.40;;;8.30;99.90;;;;;;4872438;29;20199;-86
2021/12/19 12:40:22;;;;;;;0.97;0.67;;;8.40;99.90;;;;;;4871637;29;20269;-85
2021/12/19 12:42:59;;;;;;;0.70;0.70;;;8.40;99.90;;;;;;4872563;29;20215;-83
2021/12/19 12:45:26;;;;;;;2.43;0.73;;;8.40;99.90;;;;;;4875439;29;20207;-83
2021/12/19 12:47:52;;;;;;;1.07;1.00;;;8.30;99.90;;;;;;4875631;29;20222;-83
2021/12/19 12:50:18;;;;;;;4.33;1.40;;;8.30;99.90;;;;;;4877878;29;20231;-82
2021/12/19 12:52:44;;;;;;;1.30;1.30;;;8.60;99.90;;;;;;4878648;29;20243;-81
2021/12/19 12:55:10;;;;;;;1.50;1.40;;;8.70;99.90;;;;;;4874162;29;20286;-83
2021/12/19 12:57:36;;;;;;;1.87;0.57;;;8.60;99.90;;;;;;4875957;29;20247;-82
2021/12/19 13:00:03;;;;;;;0.80;0.80;;;8.40;99.90;;;;;;4878090;29;20208;-82
2021/12/19 13:02:41;;;;;;;1.27;1.17;;;8.50;99.90;;;;;;4876187;29;20549;-82
2021/12/19 13:05:12;;;;;;;0.33;0.33;;;8.60;99.90;;;;;;4874251;29;20306;-83
2021/12/19 13:07:39;;;;;;;7.77;1.03;;;8.60;99.90;;;;;;4875041;29;20188;-83
2021/12/19 13:10:05;;;;;;;0.33;0.33;;;8.60;99.90;;;;;;4874560;29;20314;-83
2021/12/19 13:12:37;;;;;;;1.37;1.17;;;8.40;99.90;;;;;;4874679;29;20199;-83
2021/12/19 13:15:05;;;;;;;1.20;0.97;;;8.10;99.90;;;;;;4874281;29;20228;-82
2021/12/19 13:17:32;;;;;;;2.60;1.13;;;8.20;99.90;;;;;;4867205;29;20228;-83
2021/12/19 13:20:02;;;;;;;0.50;0.50;;;8.00;99.90;;;;;;4866811;29;20844;-83
2021/12/19 13:22:46;;;;;;;0.20;0.20;;;8.00;99.90;;;;;;4869185;29;20216;-82
2021/12/19 13:25:28;;;;;;;0.90;0.90;;;7.80;99.90;;;;;;4873683;29;21211;-82
2021/12/19 13:28:06;;;;;;;2.27;0.93;;;7.80;99.90;;;;;;4872254;29;20195;-82
2021/12/19 13:30:37;;;;;;;0.57;0.53;;;7.90;99.90;;;;;;4874303;29;20207;-82
2021/12/19 13:33:11;;;;;;;0.77;0.67;;;8.00;99.90;;;;;;4872768;29;20236;-82
2021/12/19 13:35:46;;;;;;;1.17;1.10;;;7.90;99.90;;;;;;4874866;29;20282;-81
2021/12/19 13:38:17;;;;;;;0.97;0.73;;;7.90;99.90;;;;;;4870042;29;20675;-82
2021/12/19 13:40:44;;;;;;;0.73;0.47;;;7.80;99.90;;;;;;4873244;29;20230;-82
2021/12/19 13:43:17;;;;;;;0.93;0.87;;;7.60;99.90;;;;;;4874172;29;20232;-81
2021/12/19 13:45:48;;;;;;;0.20;0.20;;;7.50;99.90;;;;;;4875042;29;20191;-81
2021/12/19 13:48:30;;;;;;;0.30;0.30;;;7.50;99.90;;;;;;4872381;29;20202;-82
2021/12/19 13:51:12;;;;;;;0.50;0.50;;;7.50;99.90;;;;;;4871378;29;20710;-82
2021/12/19 13:53:40;;;;;;;2.27;0.27;;;7.60;99.90;;;;;;4872732;29;20665;-82
2021/12/19 13:56:12;;;;;;;0.20;0.20;;;7.60;99.90;;;;;;4870994;29;20278;-84
2021/12/19 13:58:41;;;;;;;0.70;0.70;;;7.30;99.90;;;;;;4868796;29;20292;-81
2021/12/19 14:01:17;;;;;;;0.30;0.30;;;7.30;99.90;;;;;;4870533;29;20263;-82
2021/12/19 14:03:47;;;;;;;0.70;0.20;;;7.60;99.90;;;;;;4871182;29;20664;-81
2021/12/19 14:06:15;;;;;;;0.40;0.40;;;7.60;99.90;;;;;;4870982;29;20195;-82
2021/12/19 14:08:41;;;;;;;1.00;1.00;;;7.30;99.90;;;;;;4867756;29;20191;-81
2021/12/19 14:11:11;;;;;;;0.43;0.37;;;7.40;99.90;;;;;;4868421;29;20230;-81